createdAt,value
2018-11-21T00:00:18.158Z,94840.71
2018-11-21T00:02:47.128Z,94839.22
2018-11-21T00:05:16.118Z,94824.91
2018-11-21T00:07:45.154Z,94824.09
2018-11-21T00:10:14.653Z,94823.88
2018-11-21T00:12:49.128Z,94816.67
2018-11-21T00:15:17.942Z,94819.08
2018-11-21T00:17:46.934Z,94820.26
2018-11-21T00:20:15.812Z,94824.34
2018-11-21T00:22:44.705Z,94820.34
2018-11-21T00:25:13.889Z,94807.41
2018-11-21T00:27:42.902Z,94810.23
2018-11-21T00:30:15.681Z,94796.11
2018-11-21T00:32:44.811Z,94799.92
2018-11-21T00:35:13.663Z,94795.59
2018-11-21T00:37:42.562Z,94792.20
2018-11-21T00:40:13.174Z,94775.47
2018-11-21T00:42:46.670Z,94768.84
2018-11-21T00:45:11.498Z,94761.62
2018-11-21T00:47:40.934Z,94763.85
2018-11-21T00:50:09.910Z,94764.03
2018-11-21T00:52:38.811Z,94765.39
2018-11-21T00:55:08.040Z,94767.69
2018-11-21T00:57:36.870Z,94768.70
2018-11-21T01:00:07.826Z,94758.27
2018-11-21T01:02:36.864Z,94753.47
2018-11-21T01:05:06.323Z,94751.10
2018-11-21T01:07:35.205Z,94746.95
2018-11-21T01:10:04.471Z,94739.70
2018-11-21T01:12:33.404Z,94739.88
2018-11-21T01:15:02.404Z,94727.81
2018-11-21T01:17:31.343Z,94723.91
2018-11-21T01:20:00.172Z,94713.35
2018-11-21T01:22:29.077Z,94722.62
2018-11-21T01:24:58.112Z,94730.33
2018-11-21T01:27:27.363Z,94741.45
2018-11-21T01:29:56.055Z,94734.13
2018-11-21T01:32:25.176Z,94714.16
2018-11-21T01:34:54.152Z,94714.47
2018-11-21T01:37:23.147Z,94727.33
2018-11-21T01:39:52.141Z,94715.44
2018-11-21T01:42:20.976Z,94711.08
2018-11-21T01:44:49.816Z,94719.78
2018-11-21T01:47:19.014Z,94721.19
2018-11-21T01:49:47.902Z,94726.59
2018-11-21T01:52:16.788Z,94728.11
2018-11-21T01:54:45.984Z,94732.66
2018-11-21T01:57:14.999Z,94725.34
2018-11-21T01:59:44.809Z,94741.45
2018-11-21T02:02:13.952Z,94734.98
2018-11-21T02:04:42.902Z,94738.95
2018-11-21T02:07:11.808Z,94698.26
2018-11-21T02:09:41.011Z,94709.44
2018-11-21T02:12:09.875Z,94713.34
2018-11-21T02:14:38.878Z,94719.39
2018-11-21T02:17:07.921Z,94701.69
2018-11-21T02:19:36.863Z,94699.85
2018-11-21T02:22:05.760Z,94686.88
2018-11-21T02:24:34.986Z,94693.44
2018-11-21T02:27:03.991Z,94688.89
2018-11-21T02:29:32.950Z,94682.14
2018-11-21T02:32:02.201Z,94681.72
2018-11-21T02:34:31.131Z,94673.21
2018-11-21T02:37:00.033Z,94679.84
2018-11-21T02:39:29.360Z,94685.75
2018-11-21T02:41:58.350Z,94680.44
2018-11-21T02:44:27.315Z,94676.53
2018-11-21T02:46:56.459Z,94663.15
2018-11-21T02:49:25.421Z,94665.56
2018-11-21T02:51:54.413Z,94663.69
2018-11-21T02:54:23.736Z,94650.25
2018-11-21T02:57:21.805Z,94672.27
2018-11-21T02:59:52.561Z,94650.20
2018-11-21T03:02:21.620Z,94676.20
2018-11-21T03:04:50.531Z,94639.72
2018-11-21T03:07:19.443Z,94650.18
2018-11-21T03:09:48.393Z,94640.97
2018-11-21T03:12:17.280Z,94643.80
2018-11-21T03:14:46.377Z,94636.58
2018-11-21T03:17:15.428Z,94631.61
2018-11-21T03:19:44.272Z,94614.75
2018-11-21T03:22:13.151Z,94617.16
2018-11-21T03:24:42.385Z,94615.52
2018-11-21T03:27:11.362Z,94611.30
2018-11-21T03:29:40.249Z,94614.50
2018-11-21T03:32:09.477Z,94611.67
2018-11-21T03:34:38.432Z,94623.45
2018-11-21T03:37:07.447Z,94613.22
2018-11-21T03:39:36.667Z,94612.37
2018-11-21T03:42:05.938Z,94612.20
2018-11-21T03:44:34.938Z,94610.13
2018-11-21T03:47:03.973Z,94602.39
2018-11-21T03:49:32.810Z,94611.20
2018-11-21T03:52:01.827Z,94610.31
2018-11-21T03:54:30.729Z,94596.45
2018-11-21T03:56:59.584Z,94597.00
2018-11-21T03:59:28.589Z,94585.62
2018-11-21T04:01:57.843Z,94590.59
2018-11-21T04:04:26.792Z,94592.27
2018-11-21T04:06:55.563Z,94578.38
2018-11-21T04:09:24.834Z,94576.63
2018-11-21T04:11:54.569Z,94584.75
2018-11-21T04:14:22.765Z,94580.12
2018-11-21T04:16:51.910Z,94574.67
2018-11-21T04:19:20.853Z,94574.98
2018-11-21T04:21:49.848Z,94571.38
2018-11-21T04:24:18.985Z,94570.83
2018-11-21T04:26:47.843Z,94571.81
2018-11-21T04:29:16.833Z,94554.45
2018-11-21T04:31:46.018Z,94556.89
2018-11-21T04:34:14.930Z,94565.48
2018-11-21T04:36:43.816Z,94563.88
2018-11-21T04:39:13.340Z,94566.06
2018-11-21T04:41:42.339Z,94553.31
2018-11-21T04:44:11.330Z,94550.87
2018-11-21T04:46:40.455Z,94548.08
2018-11-21T04:49:09.403Z,94555.05
2018-11-21T04:51:38.418Z,94540.98
2018-11-21T04:54:07.647Z,94550.80
2018-11-21T04:56:36.440Z,94545.56
2018-11-21T04:59:05.436Z,94541.58
2018-11-21T05:01:34.807Z,94533.39
2018-11-21T05:04:03.674Z,94541.11
2018-11-21T05:06:32.568Z,94541.62
2018-11-21T05:09:01.898Z,94546.20
2018-11-21T05:11:30.752Z,94547.64
2018-11-21T05:13:59.961Z,94552.13
2018-11-21T05:16:28.965Z,94547.93
2018-11-21T05:18:57.925Z,94537.95
2018-11-21T05:21:26.721Z,94552.32
2018-11-21T05:23:55.540Z,94543.25
2018-11-21T05:26:24.799Z,94533.00
2018-11-21T05:28:53.710Z,94531.52
2018-11-21T05:31:22.600Z,94538.45
2018-11-21T05:33:51.792Z,94539.64
2018-11-21T05:36:20.815Z,94533.00
2018-11-21T05:38:49.693Z,94539.52
2018-11-21T05:41:18.632Z,94528.81
2018-11-21T05:43:47.600Z,94525.83
2018-11-21T05:46:16.494Z,94521.28
2018-11-21T05:48:45.591Z,94522.05
2018-11-21T05:51:14.470Z,94519.23
2018-11-21T05:53:43.354Z,94518.47
2018-11-21T05:56:12.577Z,94521.44
2018-11-21T05:58:41.559Z,94524.00
2018-11-21T06:01:10.552Z,94528.72
2018-11-21T06:03:39.642Z,94526.29
2018-11-21T06:06:10.042Z,94544.20
2018-11-21T06:08:37.529Z,94536.66
2018-11-21T06:11:06.790Z,94539.69
2018-11-21T06:13:35.731Z,94532.64
2018-11-21T06:16:04.518Z,94535.80
2018-11-21T06:18:33.720Z,94530.06
2018-11-21T06:21:02.710Z,94533.61
2018-11-21T06:23:31.587Z,94535.87
2018-11-21T06:26:00.491Z,94538.14
2018-11-21T06:28:29.483Z,94541.20
2018-11-21T06:30:58.370Z,94544.55
2018-11-21T06:33:27.654Z,94551.06
2018-11-21T06:35:56.683Z,94548.34
2018-11-21T06:38:25.573Z,94557.18
2018-11-21T06:40:54.466Z,94540.23
2018-11-21T06:43:23.455Z,94554.59
2018-11-21T06:45:52.451Z,94549.77
2018-11-21T06:48:21.560Z,94563.27
2018-11-21T06:50:50.431Z,94551.30
2018-11-21T06:53:19.434Z,94553.89
2018-11-21T06:55:48.748Z,94549.80
2018-11-21T06:58:17.645Z,94558.61
2018-11-21T07:00:46.498Z,94556.21
2018-11-21T07:03:15.694Z,94556.38
2018-11-21T07:05:44.622Z,94561.69
2018-11-21T07:08:13.392Z,94559.59
2018-11-21T07:10:42.397Z,94549.94
2018-11-21T07:13:11.329Z,94546.61
2018-11-21T07:15:40.157Z,94546.45
2018-11-21T07:18:09.441Z,94548.59
2018-11-21T07:20:38.512Z,94547.27
2018-11-21T07:23:07.357Z,94540.69
2018-11-21T07:25:36.509Z,94546.31
2018-11-21T07:28:05.463Z,94546.53
2018-11-21T07:30:34.451Z,94544.31
2018-11-21T07:33:03.557Z,94546.25
2018-11-21T07:35:32.429Z,94559.23
2018-11-21T07:38:01.426Z,94553.45
2018-11-21T07:40:30.654Z,94553.09
2018-11-21T07:42:59.522Z,94554.44
2018-11-21T07:45:28.399Z,94561.98
2018-11-21T07:47:57.581Z,94559.52
2018-11-21T07:50:26.496Z,94553.38
2018-11-21T07:52:55.507Z,94566.19
2018-11-21T07:55:24.714Z,94553.47
2018-11-21T07:57:58.728Z,94572.11
2018-11-21T08:01:04.492Z,94554.80
2018-11-21T08:03:38.103Z,94569.23
2018-11-21T08:06:09.854Z,94586.47
2018-11-21T08:08:56.372Z,94580.59
2018-11-21T08:11:42.045Z,94592.88
2018-11-21T08:14:28.427Z,94581.27
2018-11-21T08:17:22.751Z,94583.83
2018-11-21T08:20:19.790Z,94591.22
2018-11-21T08:23:06.504Z,94591.48
2018-11-21T08:25:46.890Z,94593.94
2018-11-21T08:28:23.552Z,94596.09
2018-11-21T08:30:52.396Z,94597.64
2018-11-21T08:33:21.400Z,94587.92
2018-11-21T08:35:59.140Z,94584.27
2018-11-21T08:38:28.781Z,94589.66
2018-11-21T08:40:57.773Z,94592.97
2018-11-21T08:43:26.779Z,94590.84
2018-11-21T08:45:56.277Z,94591.13
2018-11-21T08:48:27.207Z,94594.75
2018-11-21T08:50:56.202Z,94602.20
2018-11-21T08:53:25.198Z,94593.15
2018-11-21T08:55:54.413Z,94590.97
2018-11-21T08:58:23.284Z,94590.80
2018-11-21T09:00:52.383Z,94598.66
2018-11-21T09:03:21.555Z,94584.94
2018-11-21T09:05:50.357Z,94601.04
2018-11-21T09:08:19.246Z,94588.37
2018-11-21T09:10:48.484Z,94588.78
2018-11-21T09:13:17.332Z,94584.64
2018-11-21T09:15:46.356Z,94593.03
2018-11-21T09:18:15.589Z,94593.46
2018-11-21T09:20:44.424Z,94596.87
2018-11-21T09:23:13.314Z,94587.11
2018-11-21T09:25:42.369Z,94587.30
2018-11-21T09:28:11.325Z,94587.13
2018-11-21T09:30:40.207Z,94588.61
2018-11-21T09:33:09.223Z,94598.67
2018-11-21T09:35:38.219Z,94599.66
2018-11-21T09:38:06.801Z,94595.23
2018-11-21T09:40:35.865Z,94596.28
2018-11-21T09:43:04.774Z,94601.59
2018-11-21T09:45:33.683Z,94604.00
2018-11-21T09:48:02.706Z,94602.63
2018-11-21T09:50:32.822Z,94602.59
2018-11-21T09:53:01.674Z,94603.97
2018-11-21T09:55:30.943Z,94605.25
2018-11-21T09:57:59.876Z,94601.28
2018-11-21T10:01:05.169Z,94594.91
2018-11-21T10:03:35.600Z,94597.36
2018-11-21T10:06:26.927Z,94587.38
2018-11-21T10:08:57.735Z,94590.39
2018-11-21T10:11:26.706Z,94590.91
2018-11-21T10:13:56.159Z,94595.50
2018-11-21T10:16:24.954Z,94587.09
2018-11-21T10:18:55.664Z,94592.34
2018-11-21T10:21:26.263Z,94584.96
2018-11-21T10:23:55.138Z,94594.15
2018-11-21T10:26:24.060Z,94587.09
2018-11-21T10:28:53.768Z,94584.20
2018-11-21T10:31:22.638Z,94581.18
2018-11-21T10:33:51.678Z,94575.72
2018-11-21T10:36:20.853Z,94586.27
2018-11-21T10:38:49.724Z,94587.69
2018-11-21T10:41:18.723Z,94590.90
2018-11-21T10:43:47.760Z,94584.21
2018-11-21T10:46:16.608Z,94580.20
2018-11-21T10:48:45.516Z,94588.39
2018-11-21T10:51:15.146Z,94582.41
2018-11-21T10:53:43.810Z,94587.84
2018-11-21T10:56:12.684Z,94588.60
2018-11-21T10:58:41.906Z,94585.95
2018-11-21T11:01:28.186Z,94570.91
2018-11-21T11:04:02.949Z,94586.62
2018-11-21T11:06:49.487Z,94580.87
2018-11-21T11:09:34.613Z,94580.42
2018-11-21T11:12:21.870Z,94583.66
2018-11-21T11:15:08.858Z,94582.37
2018-11-21T11:17:59.477Z,94586.30
2018-11-21T11:20:49.075Z,94582.36
2018-11-21T11:23:36.975Z,94579.47
2018-11-21T11:26:28.299Z,94577.17
2018-11-21T11:29:25.054Z,94577.62
2018-11-21T11:32:09.685Z,94580.13
2018-11-21T11:35:12.586Z,94571.55
2018-11-21T11:37:59.244Z,94578.00
2018-11-21T11:41:02.362Z,94576.03
2018-11-21T11:43:48.892Z,94578.59
2018-11-21T11:46:28.167Z,94577.03
2018-11-21T11:49:34.600Z,94573.16
2018-11-21T11:52:37.504Z,94565.94
2018-11-21T11:55:25.444Z,94561.27
2018-11-21T11:58:15.023Z,94572.58
2018-11-21T12:01:02.877Z,94572.87
2018-11-21T12:03:49.870Z,94572.20
2018-11-21T12:06:37.594Z,94571.80
2018-11-21T12:09:33.797Z,94570.38
2018-11-21T12:12:27.523Z,94569.30
2018-11-21T12:15:15.428Z,94569.45
2018-11-21T12:18:06.549Z,94583.66
2018-11-21T12:20:53.447Z,94584.38
2018-11-21T12:23:39.966Z,94585.50
2018-11-21T12:26:17.986Z,94588.80
2018-11-21T12:29:05.811Z,94596.12
2018-11-21T12:32:08.796Z,94587.63
2018-11-21T12:34:56.636Z,94592.92
2018-11-21T12:37:43.320Z,94589.47
2018-11-21T12:40:34.165Z,94587.55
2018-11-21T12:43:34.274Z,94587.80
2018-11-21T12:46:20.864Z,94584.69
2018-11-21T12:49:23.872Z,94591.11
2018-11-21T12:52:11.808Z,94585.81
2018-11-21T12:54:58.951Z,94595.70
2018-11-21T12:57:56.836Z,94593.02
2018-11-21T13:00:56.945Z,94592.78
2018-11-21T13:03:43.378Z,94600.02
2018-11-21T13:06:37.123Z,94604.02
2018-11-21T13:09:28.011Z,94602.17
2018-11-21T13:12:34.257Z,94594.39
2018-11-21T13:15:20.732Z,94597.92
2018-11-21T13:18:11.699Z,94611.92
2018-11-21T13:21:05.763Z,94608.31
2018-11-21T13:24:08.826Z,94606.70
2018-11-21T13:27:02.632Z,94617.20
2018-11-21T13:29:42.377Z,94616.48
2018-11-21T13:32:39.133Z,94619.61
2018-11-21T13:35:32.986Z,94618.61
2018-11-21T13:38:30.264Z,94620.48
2018-11-21T13:41:19.047Z,94621.52
2018-11-21T13:44:05.699Z,94622.33
2018-11-21T13:46:52.208Z,94630.92
2018-11-21T13:49:30.232Z,94631.69
2018-11-21T13:52:33.025Z,94629.48
2018-11-21T13:55:03.550Z,94635.59
2018-11-21T13:57:32.853Z,94638.41
2018-11-21T14:00:02.049Z,94630.35
2018-11-21T14:02:31.343Z,94627.47
2018-11-21T14:05:00.335Z,94631.12
2018-11-21T14:07:29.394Z,94640.17
2018-11-21T14:09:58.450Z,94633.84
2018-11-21T14:12:27.421Z,94634.61
2018-11-21T14:14:56.319Z,94642.40
2018-11-21T14:17:27.775Z,94642.75
2018-11-21T14:19:54.405Z,94639.09
2018-11-21T14:22:23.487Z,94649.77
2018-11-21T14:24:52.275Z,94651.89
2018-11-21T14:27:21.298Z,94645.78
2018-11-21T14:29:50.323Z,94649.17
2018-11-21T14:32:19.274Z,94649.34
2018-11-21T14:34:48.181Z,94653.73
2018-11-21T14:37:17.488Z,94652.16
2018-11-21T14:39:46.463Z,94657.13
2018-11-21T14:42:15.343Z,94661.47
2018-11-21T14:44:44.274Z,94655.60
2018-11-21T14:47:15.119Z,94655.29
2018-11-21T14:49:46.139Z,94664.11
2018-11-21T14:52:15.474Z,94659.13
2018-11-21T14:54:44.440Z,94658.44
2018-11-21T14:57:13.272Z,94665.48
2018-11-21T14:59:42.219Z,94666.82
2018-11-21T15:02:11.209Z,94669.88
2018-11-21T15:04:40.206Z,94673.48
2018-11-21T15:07:09.338Z,94673.75
2018-11-21T15:09:38.174Z,94664.05
2018-11-21T15:12:07.173Z,94689.22
2018-11-21T15:14:36.214Z,94688.45
2018-11-21T15:17:05.361Z,94684.05
2018-11-21T15:19:35.291Z,94692.37
2018-11-21T15:22:04.502Z,94696.61
2018-11-21T15:24:33.478Z,94703.92
2018-11-21T15:27:02.377Z,94714.81
2018-11-21T15:29:31.441Z,94711.87
2018-11-21T15:32:00.366Z,94711.03
2018-11-21T15:34:29.354Z,94717.47
2018-11-21T15:36:58.287Z,94720.80
2018-11-21T15:39:27.116Z,94716.12
2018-11-21T15:41:56.128Z,94720.66
2018-11-21T15:44:25.366Z,94730.80
2018-11-21T15:46:54.221Z,94736.19
2018-11-21T15:49:23.105Z,94735.17
2018-11-21T15:51:52.295Z,94744.35
2018-11-21T15:54:21.317Z,94752.84
2018-11-21T15:56:50.207Z,94757.34
2018-11-21T15:59:19.745Z,94758.02
2018-11-21T16:01:48.709Z,94765.41
2018-11-21T16:04:17.823Z,94763.97
2018-11-21T16:06:46.909Z,94761.27
2018-11-21T16:09:15.786Z,94767.52
2018-11-21T16:11:44.787Z,94765.85
2018-11-21T16:14:13.643Z,94771.45
2018-11-21T16:16:42.568Z,94773.14
2018-11-21T16:19:11.575Z,94776.20
2018-11-21T16:21:40.715Z,94781.22
2018-11-21T16:24:09.560Z,94785.30
2018-11-21T16:26:38.557Z,94783.34
2018-11-21T16:29:07.584Z,94784.53
2018-11-21T16:31:36.531Z,94786.40
2018-11-21T16:34:05.530Z,94788.44
2018-11-21T16:36:34.732Z,94790.72
2018-11-21T16:39:04.293Z,94789.81
2018-11-21T16:41:33.119Z,94792.77
2018-11-21T16:44:02.351Z,94794.48
2018-11-21T16:46:31.324Z,94796.76
2018-11-21T16:49:00.314Z,94799.30
2018-11-21T16:51:29.638Z,94807.70
2018-11-21T16:53:58.761Z,94799.72
2018-11-21T16:56:27.701Z,94805.63
2018-11-21T16:58:56.750Z,94815.81
2018-11-21T17:01:25.695Z,94823.98
2018-11-21T17:03:54.686Z,94824.11
2018-11-21T17:06:23.659Z,94838.38
2018-11-21T17:08:52.531Z,94842.83
2018-11-21T17:11:21.465Z,94850.63
2018-11-21T17:13:50.801Z,94847.58
2018-11-21T17:16:19.656Z,94858.69
2018-11-21T17:18:48.543Z,94855.70
2018-11-21T17:21:17.481Z,94864.93
2018-11-21T17:23:46.763Z,94864.71
2018-11-21T17:26:15.683Z,94863.80
2018-11-21T17:28:44.538Z,94874.17
2018-11-21T17:31:13.742Z,94875.45
2018-11-21T17:33:42.823Z,94873.98
2018-11-21T17:36:11.830Z,94878.31
2018-11-21T17:38:41.012Z,94878.34
2018-11-21T17:41:09.910Z,94887.32
2018-11-21T17:43:38.800Z,94895.09
2018-11-21T17:46:08.447Z,94892.12
2018-11-21T17:48:37.432Z,94889.73
2018-11-21T17:51:06.282Z,94894.21
2018-11-21T17:53:35.431Z,94897.52
2018-11-21T17:56:04.313Z,94896.97
2018-11-21T17:58:33.275Z,94896.59
2018-11-21T18:01:02.175Z,94901.45
2018-11-21T18:03:31.070Z,94908.17
2018-11-21T18:06:00.135Z,94911.25
2018-11-21T18:08:29.186Z,94913.91
2018-11-21T18:10:58.048Z,94909.19
2018-11-21T18:13:27.385Z,94919.39
2018-11-21T18:15:56.368Z,94927.64
2018-11-21T18:18:25.219Z,94929.64
2018-11-21T18:20:54.491Z,94932.05
2018-11-21T18:23:23.346Z,94932.05
2018-11-21T18:25:52.209Z,94934.63
2018-11-21T18:28:21.141Z,94935.34
2018-11-21T18:30:50.122Z,94935.27
2018-11-21T18:33:19.129Z,94934.98
2018-11-21T18:35:48.267Z,94934.22
2018-11-21T18:38:17.085Z,94939.39
2018-11-21T18:40:46.098Z,94951.88
2018-11-21T18:43:15.123Z,94943.38
2018-11-21T18:45:45.212Z,94952.06
2018-11-21T18:48:14.260Z,94960.89
2018-11-21T18:50:43.382Z,94955.64
2018-11-21T18:53:12.701Z,94956.33
2018-11-21T18:56:30.477Z,94967.01
2018-11-21T18:59:47.558Z,94961.27
2018-11-21T19:02:16.630Z,94968.09
2018-11-21T19:04:45.552Z,94970.62
2018-11-21T19:07:14.537Z,94969.53
2018-11-21T19:09:43.721Z,94973.16
2018-11-21T19:12:12.623Z,94977.47
2018-11-21T19:14:41.474Z,94981.80
2018-11-21T19:17:10.516Z,94982.19
2018-11-21T19:19:39.582Z,94982.80
2018-11-21T19:22:08.461Z,94989.96
2018-11-21T19:24:37.555Z,94987.16
2018-11-21T19:27:06.651Z,94989.28
2018-11-21T19:29:35.652Z,94990.08
2018-11-21T19:32:04.888Z,94990.73
2018-11-21T19:34:33.775Z,94992.03
2018-11-21T19:37:02.617Z,94987.68
2018-11-21T19:39:31.722Z,94984.10
2018-11-21T19:42:00.756Z,94990.42
2018-11-21T19:44:29.720Z,94993.08
2018-11-21T19:46:58.628Z,94994.37
2018-11-21T19:49:33.176Z,94999.69
2018-11-21T19:51:56.397Z,94999.77
2018-11-21T19:54:25.724Z,95004.14
2018-11-21T19:56:54.697Z,95004.41
2018-11-21T19:59:23.475Z,95000.77
2018-11-21T20:01:52.429Z,95013.44
2018-11-21T20:04:21.469Z,95017.34
2018-11-21T20:06:50.377Z,95007.78
2018-11-21T20:09:19.436Z,95020.17
2018-11-21T20:11:48.446Z,95018.05
2018-11-21T20:14:17.339Z,95019.59
2018-11-21T20:16:46.511Z,95025.41
2018-11-21T20:19:15.543Z,95024.41
2018-11-21T20:21:44.415Z,95029.88
2018-11-21T20:24:13.589Z,95028.50
2018-11-21T20:26:42.737Z,95025.52
2018-11-21T20:29:11.713Z,95030.72
2018-11-21T20:31:40.611Z,95029.84
2018-11-21T20:34:10.139Z,95030.47
2018-11-21T20:36:39.252Z,95028.53
2018-11-21T20:39:10.747Z,95035.79
2018-11-21T20:41:40.186Z,95039.70
2018-11-21T20:44:09.052Z,95042.84
2018-11-21T20:46:38.056Z,95038.40
2018-11-21T20:49:11.237Z,95039.03
2018-11-21T20:51:36.437Z,95038.88
2018-11-21T20:54:05.542Z,95046.61
2018-11-21T20:56:34.401Z,95042.51
2018-11-21T20:59:03.440Z,95051.83
2018-11-21T21:01:32.416Z,95048.98
2018-11-21T21:04:01.632Z,95047.58
2018-11-21T21:06:30.547Z,95055.55
2018-11-21T21:08:59.775Z,95056.53
2018-11-21T21:11:28.723Z,95053.04
2018-11-21T21:13:57.602Z,95051.70
2018-11-21T21:16:26.577Z,95064.49
2018-11-21T21:18:55.595Z,95065.84
2018-11-21T21:21:24.477Z,95067.78
2018-11-21T21:23:53.482Z,95061.69
2018-11-21T21:26:22.478Z,95070.59
2018-11-21T21:28:51.495Z,95075.11
2018-11-21T21:31:20.388Z,95076.81
2018-11-21T21:33:49.366Z,95076.86
2018-11-21T21:36:18.244Z,95082.02
2018-11-21T21:38:47.483Z,95088.79
2018-11-21T21:41:16.454Z,95082.09
2018-11-21T21:43:45.446Z,95086.93
2018-11-21T21:46:14.360Z,95089.97
2018-11-21T21:48:43.217Z,95095.92
2018-11-21T21:51:12.231Z,95094.80
2018-11-21T21:53:41.494Z,95100.63
2018-11-21T21:56:10.407Z,95104.64
2018-11-21T21:58:39.201Z,95100.72
2018-11-21T22:01:08.239Z,95101.45
2018-11-21T22:03:37.294Z,95110.64
2018-11-21T22:06:06.443Z,95106.81
2018-11-21T22:08:35.546Z,95115.43
2018-11-21T22:11:04.480Z,95111.20
2018-11-21T22:13:33.371Z,95110.34
2018-11-21T22:16:02.649Z,95119.45
2018-11-21T22:18:31.595Z,95123.46
2018-11-21T22:21:00.451Z,95125.59
2018-11-21T22:23:29.404Z,95124.33
2018-11-21T22:25:58.351Z,95117.98
2018-11-21T22:28:27.347Z,95120.45
2018-11-21T22:30:56.717Z,95119.86
2018-11-21T22:33:25.527Z,95116.20
2018-11-21T22:35:58.305Z,95118.91
2018-11-21T22:38:23.682Z,95118.23
2018-11-21T22:40:52.617Z,95123.98
2018-11-21T22:43:21.496Z,95121.08
2018-11-21T22:45:50.520Z,95123.60
2018-11-21T22:48:19.470Z,95122.53
2018-11-21T22:50:48.292Z,95126.01
2018-11-21T22:53:17.287Z,95126.59
2018-11-21T22:55:46.174Z,95121.30
2018-11-21T22:58:15.059Z,95120.00
2018-11-21T23:00:45.572Z,95124.12
2018-11-21T23:03:15.804Z,95112.70
2018-11-21T23:05:44.701Z,95113.86
2018-11-21T23:08:13.592Z,95117.00
2018-11-21T23:10:42.776Z,95114.91
2018-11-21T23:13:11.697Z,95121.05
2018-11-21T23:15:40.898Z,95115.64
2018-11-21T23:18:10.179Z,95119.12
2018-11-21T23:20:39.195Z,95123.14
2018-11-21T23:23:08.192Z,95120.73
2018-11-21T23:25:37.396Z,95120.73
2018-11-21T23:28:06.461Z,95121.70
2018-11-21T23:30:35.465Z,95123.24
2018-11-21T23:33:04.392Z,95125.14
2018-11-21T23:35:33.364Z,95124.70
2018-11-21T23:38:02.253Z,95128.44
2018-11-21T23:40:31.057Z,95127.66
2018-11-21T23:42:59.751Z,95128.72
2018-11-21T23:45:28.720Z,95124.91
2018-11-21T23:47:57.890Z,95126.05
2018-11-21T23:50:26.808Z,95126.73
2018-11-21T23:52:55.692Z,95121.08
2018-11-21T23:55:24.534Z,95125.82
2018-11-21T23:57:53.483Z,95127.91
